createdAt,value
2022-11-10T00:02:08.620Z,100321.97
2022-11-10T00:04:55.307Z,100325.03
2022-11-10T00:07:41.170Z,100331.19
2022-11-10T00:10:26.654Z,100340.88
2022-11-10T00:13:12.454Z,100341.06
2022-11-10T00:16:21.344Z,100346.66
2022-11-10T00:19:06.423Z,100351.53
2022-11-10T00:21:51.828Z,100358.72
2022-11-10T00:24:37.136Z,100357.69
2022-11-10T00:27:22.512Z,100364.94
2022-11-10T00:30:08.147Z,100372.75
2022-11-10T00:32:53.223Z,100374.16
2022-11-10T00:35:38.670Z,100381.16
2022-11-10T00:38:31.057Z,100387.09
2022-11-10T00:41:16.120Z,100391.59
2022-11-10T00:44:01.611Z,100400.25
2022-11-10T00:46:46.602Z,100403.34
2022-11-10T00:49:32.167Z,100412.00
2022-11-10T00:52:17.162Z,100410.97
2022-11-10T00:55:02.449Z,100428.59
2022-11-10T00:57:47.867Z,100438.44
2022-11-10T01:00:33.631Z,100442.34
2022-11-10T01:03:19.271Z,100452.44
2022-11-10T01:06:06.194Z,100463.56
2022-11-10T01:08:51.231Z,100482.19
2022-11-10T01:11:36.358Z,100492.06
2022-11-10T01:14:21.595Z,100500.28
2022-11-10T01:17:06.973Z,100510.16
2022-11-10T01:19:52.207Z,100515.44
2022-11-10T01:22:38.760Z,100525.50
2022-11-10T01:25:24.273Z,100526.28
2022-11-10T01:28:09.494Z,100529.72
2022-11-10T01:31:18.168Z,100550.66
2022-11-10T01:34:03.147Z,100556.22
2022-11-10T01:36:51.350Z,100554.56
2022-11-10T01:39:36.467Z,100562.75
2022-11-10T01:42:38.093Z,100577.97
2022-11-10T01:45:23.931Z,100594.03
2022-11-10T01:48:30.050Z,100597.59
2022-11-10T01:51:28.198Z,100609.06
2022-11-10T01:54:23.714Z,100622.81
2022-11-10T01:57:11.769Z,100634.25
2022-11-10T01:59:56.927Z,100631.56
2022-11-10T02:03:35.003Z,100638.84
2022-11-10T02:06:23.288Z,100647.03
2022-11-10T02:09:08.639Z,100654.16
2022-11-10T02:11:57.203Z,100677.03
2022-11-10T02:14:42.505Z,100677.56
2022-11-10T02:17:27.579Z,100691.09
2022-11-10T02:20:21.390Z,100692.41
2022-11-10T02:23:31.509Z,100706.06
2022-11-10T02:26:21.119Z,100704.19
2022-11-10T02:29:11.460Z,100709.19
2022-11-10T02:31:59.741Z,100717.50
2022-11-10T02:34:45.115Z,100731.41
2022-11-10T02:37:30.470Z,100744.75
2022-11-10T02:40:15.808Z,100752.78
2022-11-10T02:43:01.414Z,100773.63
2022-11-10T02:45:46.656Z,100784.78
2022-11-10T02:48:32.104Z,100801.56
2022-11-10T02:51:17.812Z,100807.03
2022-11-10T02:54:03.120Z,100822.75
2022-11-10T02:56:50.643Z,100813.41
2022-11-10T02:59:35.764Z,100829.13
2022-11-10T03:02:21.189Z,100835.47
2022-11-10T03:05:06.684Z,100841.31
2022-11-10T03:07:56.277Z,100846.28
2022-11-10T03:10:41.304Z,100861.53
2022-11-10T03:13:58.929Z,100868.69
2022-11-10T03:16:44.607Z,100882.91
2022-11-10T03:19:30.064Z,100890.09
2022-11-10T03:22:15.692Z,100891.41
2022-11-10T03:25:01.053Z,100897.03
2022-11-10T03:27:46.594Z,100911.59
2022-11-10T03:30:32.079Z,100923.03
2022-11-10T03:33:17.536Z,100928.66
2022-11-10T03:36:03.089Z,100937.34
2022-11-10T03:38:48.648Z,100944.94
2022-11-10T03:41:36.464Z,100940.75
2022-11-10T03:44:21.675Z,100962.34
2022-11-10T03:47:06.972Z,100975.59
2022-11-10T03:49:52.445Z,100982.81
2022-11-10T03:52:43.246Z,101011.88
2022-11-10T03:55:28.452Z,101032.41
2022-11-10T03:58:13.800Z,101045.03
2022-11-10T04:00:59.204Z,101070.66
2022-11-10T04:03:50.172Z,101092.91
2022-11-10T04:06:55.195Z,101111.28
2022-11-10T04:09:40.624Z,101137.38
2022-11-10T04:12:44.545Z,101164.25
2022-11-10T04:15:42.098Z,101184.34
2022-11-10T04:18:30.166Z,101203.38
2022-11-10T04:21:17.228Z,101202.88
2022-11-10T04:24:03.025Z,101217.41
2022-11-10T04:26:56.490Z,101231.75
2022-11-10T04:29:41.597Z,101218.06
2022-11-10T04:32:26.969Z,101209.19
2022-11-10T04:35:13.265Z,101214.84
2022-11-10T04:37:58.588Z,101214.84
2022-11-10T04:40:43.974Z,101208.50
2022-11-10T04:43:30.014Z,101210.63
2022-11-10T04:46:31.638Z,101209.16
2022-11-10T04:49:19.582Z,101220.41
2022-11-10T04:52:05.171Z,101227.22
2022-11-10T04:54:50.566Z,101237.41
2022-11-10T04:57:36.203Z,101233.25
2022-11-10T05:00:21.753Z,101245.28
2022-11-10T05:03:09.273Z,101238.59
2022-11-10T05:05:54.525Z,101249.47
2022-11-10T05:08:40.897Z,101255.00
2022-11-10T05:11:26.413Z,101261.03
2022-11-10T05:14:11.793Z,101258.56
2022-11-10T05:16:57.005Z,101268.25
2022-11-10T05:19:42.466Z,101268.41
2022-11-10T05:22:27.902Z,101269.25
2022-11-10T05:25:13.385Z,101273.63
2022-11-10T05:27:58.694Z,101276.66
2022-11-10T05:30:44.283Z,101273.78
2022-11-10T05:33:29.958Z,101282.44
2022-11-10T05:36:15.246Z,101288.66
2022-11-10T05:39:00.674Z,101288.63
2022-11-10T05:41:47.387Z,101304.34
2022-11-10T05:44:34.877Z,101307.00
2022-11-10T05:47:22.728Z,101310.66
2022-11-10T05:50:09.101Z,101304.81
2022-11-10T05:52:55.306Z,101324.88
2022-11-10T05:55:40.821Z,101358.66
2022-11-10T05:58:26.081Z,101370.69
2022-11-10T06:01:11.500Z,101375.38
2022-11-10T06:03:56.984Z,101378.22
2022-11-10T06:06:42.379Z,101376.88
2022-11-10T06:09:27.678Z,101374.88
2022-11-10T06:12:13.064Z,101382.25
2022-11-10T06:14:58.487Z,101387.94
2022-11-10T06:17:44.068Z,101383.25
2022-11-10T06:20:29.621Z,101382.25
2022-11-10T06:23:15.167Z,101402.63
2022-11-10T06:26:00.253Z,101399.63
2022-11-10T06:28:45.575Z,101404.66
2022-11-10T06:31:30.929Z,101402.81
2022-11-10T06:34:16.430Z,101413.50
2022-11-10T06:37:01.982Z,101406.66
2022-11-10T06:39:47.533Z,101411.16
2022-11-10T06:42:33.431Z,101410.16
2022-11-10T06:45:18.901Z,101419.19
2022-11-10T06:48:11.875Z,101414.84
2022-11-10T06:51:03.445Z,101429.06
2022-11-10T06:53:48.705Z,101430.75
2022-11-10T06:56:34.973Z,101424.03
2022-11-10T06:59:20.276Z,101436.09
2022-11-10T07:02:06.267Z,101441.75
2022-11-10T07:04:51.243Z,101453.31
2022-11-10T07:07:36.594Z,101458.16
2022-11-10T07:10:21.864Z,101475.88
2022-11-10T07:13:07.037Z,101472.84
2022-11-10T07:15:52.598Z,101476.38
2022-11-10T07:18:37.870Z,101473.34
2022-11-10T07:21:23.188Z,101471.16
2022-11-10T07:24:08.917Z,101472.81
2022-11-10T07:26:54.003Z,101478.84
2022-11-10T07:29:39.869Z,101473.00
2022-11-10T07:32:25.234Z,101471.63
2022-11-10T07:35:10.775Z,101467.13
2022-11-10T07:38:04.585Z,101453.41
2022-11-10T07:40:53.932Z,101446.72
2022-11-10T07:43:38.995Z,101437.50
2022-11-10T07:46:24.303Z,101436.47
2022-11-10T07:49:09.813Z,101434.81
2022-11-10T07:51:57.874Z,101424.59
2022-11-10T07:54:43.180Z,101418.25
2022-11-10T07:57:28.425Z,101415.06
2022-11-10T08:00:16.805Z,101411.72
2022-11-10T08:03:06.917Z,101410.41
2022-11-10T08:05:52.174Z,101417.69
2022-11-10T08:08:37.629Z,101436.06
2022-11-10T08:11:23.054Z,101425.03
2022-11-10T08:14:08.378Z,101425.03
2022-11-10T08:17:00.371Z,101434.41
2022-11-10T08:19:45.833Z,101431.38
2022-11-10T08:22:31.295Z,101430.72
2022-11-10T08:25:16.489Z,101430.16
2022-11-10T08:28:07.978Z,101430.81
2022-11-10T08:30:53.628Z,101418.13
2022-11-10T08:33:38.678Z,101410.25
2022-11-10T08:36:24.169Z,101397.19
2022-11-10T08:39:09.704Z,101392.38
2022-11-10T08:41:55.154Z,101388.16
2022-11-10T08:44:40.718Z,101394.38
2022-11-10T08:47:25.982Z,101393.16
2022-11-10T08:50:14.295Z,101385.47
2022-11-10T08:53:04.372Z,101396.47
2022-11-10T08:55:50.310Z,101399.81
2022-11-10T08:58:47.315Z,101395.16
2022-11-10T09:01:35.432Z,101406.31
2022-11-10T09:04:21.075Z,101414.22
2022-11-10T09:07:06.209Z,101403.88
2022-11-10T09:10:01.482Z,101406.56
2022-11-10T09:12:52.030Z,101402.19
2022-11-10T09:15:37.822Z,101399.53
2022-11-10T09:18:22.948Z,101401.50
2022-11-10T09:21:12.961Z,101403.97
2022-11-10T09:23:58.446Z,101397.59
2022-11-10T09:26:47.675Z,101400.28
2022-11-10T09:29:33.011Z,101397.63
2022-11-10T09:32:18.538Z,101396.31
2022-11-10T09:35:04.122Z,101386.25
2022-11-10T09:37:49.329Z,101385.47
2022-11-10T09:41:02.934Z,101376.78
2022-11-10T09:44:13.062Z,101372.38
2022-11-10T09:47:04.906Z,101364.94
2022-11-10T09:49:56.028Z,101370.97
2022-11-10T09:52:45.198Z,101351.38
2022-11-10T09:55:35.048Z,101348.06
2022-11-10T09:58:23.685Z,101344.66
2022-11-10T10:01:25.314Z,101329.94
2022-11-10T10:04:54.214Z,101324.13
2022-11-10T10:08:00.947Z,101326.38
2022-11-10T10:11:21.747Z,101303.94
2022-11-10T10:14:13.999Z,101293.59
2022-11-10T10:17:24.772Z,101293.28
2022-11-10T10:20:27.415Z,101287.31
2022-11-10T10:23:16.748Z,101274.00
2022-11-10T10:26:02.349Z,101260.50
2022-11-10T10:29:38.779Z,101253.56
2022-11-10T10:32:23.871Z,101250.91
2022-11-10T10:35:29.675Z,101254.59
2022-11-10T10:38:37.924Z,101245.75
2022-11-10T10:41:28.579Z,101239.22
2022-11-10T10:44:16.663Z,101213.31
2022-11-10T10:47:02.989Z,101219.56
2022-11-10T10:49:48.055Z,101209.22
2022-11-10T10:52:33.508Z,101205.38
2022-11-10T10:55:18.693Z,101206.88
2022-11-10T10:58:22.897Z,101207.50
2022-11-10T11:01:14.578Z,101194.56
2022-11-10T11:04:01.015Z,101210.38
2022-11-10T11:07:03.976Z,101205.47
2022-11-10T11:09:51.125Z,101214.38
2022-11-10T11:12:36.972Z,101206.25
2022-11-10T11:15:28.468Z,101224.59
2022-11-10T11:18:15.868Z,101213.13
2022-11-10T11:21:07.060Z,101209.63
2022-11-10T11:24:28.193Z,101211.50
2022-11-10T11:27:47.845Z,101207.47
2022-11-10T11:31:02.580Z,101228.88
2022-11-10T11:34:01.913Z,101219.59
2022-11-10T11:37:19.176Z,101216.53
2022-11-10T11:40:05.612Z,101220.03
2022-11-10T11:43:03.200Z,101210.88
2022-11-10T11:46:09.551Z,101218.81
2022-11-10T11:49:00.545Z,101230.00
2022-11-10T11:52:02.857Z,101223.44
2022-11-10T11:55:01.060Z,101232.25
2022-11-10T11:58:12.678Z,101239.47
2022-11-10T12:01:07.582Z,101241.94
2022-11-10T12:04:36.741Z,101244.13
2022-11-10T12:07:40.534Z,101241.25
2022-11-10T12:10:44.774Z,101233.28
2022-11-10T12:13:48.693Z,101242.31
2022-11-10T12:16:35.152Z,101241.03
2022-11-10T12:19:34.119Z,101239.31
2022-11-10T12:22:48.836Z,101245.13
2022-11-10T12:26:15.245Z,101240.50
2022-11-10T12:29:12.581Z,101242.44
2022-11-10T12:32:14.882Z,101232.88
2022-11-10T12:35:11.353Z,101237.03
2022-11-10T12:38:05.579Z,101232.19
2022-11-10T12:40:54.294Z,101233.75
2022-11-10T12:43:42.473Z,101233.69
2022-11-10T12:46:27.802Z,101229.97
2022-11-10T12:49:38.340Z,101237.00
2022-11-10T12:52:52.779Z,101235.56
2022-11-10T12:55:57.332Z,101241.19
2022-11-10T12:58:42.374Z,101242.22
2022-11-10T13:01:28.163Z,101240.84
2022-11-10T13:04:14.900Z,101247.59
2022-11-10T13:07:02.470Z,101243.03
2022-11-10T13:09:50.471Z,101239.72
2022-11-10T13:12:35.886Z,101256.31
2022-11-10T13:15:39.511Z,101259.97
2022-11-10T13:18:44.580Z,101249.56
2022-11-10T13:21:53.830Z,101242.22
2022-11-10T13:24:43.151Z,101249.69
2022-11-10T13:27:35.841Z,101261.13
2022-11-10T13:30:57.035Z,101256.56
2022-11-10T13:34:04.797Z,101260.09
2022-11-10T13:36:57.538Z,101262.97
2022-11-10T13:39:45.501Z,101253.00
2022-11-10T13:42:30.897Z,101260.88
2022-11-10T13:45:45.669Z,101263.13
2022-11-10T13:49:01.312Z,101274.13
2022-11-10T13:52:08.484Z,101278.78
2022-11-10T13:55:20.097Z,101272.13
2022-11-10T13:58:09.074Z,101270.78
2022-11-10T14:01:16.224Z,101274.34
2022-11-10T14:04:03.030Z,101282.19
2022-11-10T14:06:55.585Z,101283.69
2022-11-10T14:09:50.092Z,101285.22
2022-11-10T14:12:39.700Z,101285.13
2022-11-10T14:15:34.723Z,101287.28
2022-11-10T14:18:23.551Z,101284.16
2022-11-10T14:21:20.821Z,101270.72
2022-11-10T14:24:20.392Z,101267.81
2022-11-10T14:27:11.635Z,101262.00
2022-11-10T14:30:10.921Z,101272.94
2022-11-10T14:33:11.825Z,101289.19
2022-11-10T14:36:02.279Z,101282.72
2022-11-10T14:38:47.993Z,101282.84
2022-11-10T14:41:32.877Z,101291.59
2022-11-10T14:44:26.702Z,101281.88
2022-11-10T14:47:26.488Z,101280.59
2022-11-10T14:50:14.547Z,101280.78
2022-11-10T14:53:18.562Z,101270.66
2022-11-10T14:56:06.765Z,101290.22
2022-11-10T14:58:52.501Z,101271.72
2022-11-10T15:01:40.627Z,101272.31
2022-11-10T15:04:31.771Z,101267.72
2022-11-10T15:07:17.782Z,101275.06
2022-11-10T15:10:42.304Z,101272.00
2022-11-10T15:13:27.398Z,101274.28
2022-11-10T15:16:33.603Z,101280.44
2022-11-10T15:19:34.569Z,101278.84
2022-11-10T15:22:35.509Z,101291.56
2022-11-10T15:25:35.716Z,101296.56
2022-11-10T15:28:34.666Z,101302.25
2022-11-10T15:31:26.515Z,101301.28
2022-11-10T15:34:41.555Z,101296.03
2022-11-10T15:37:31.130Z,101303.63
2022-11-10T15:40:31.578Z,101327.47
2022-11-10T15:43:27.008Z,101337.09
2022-11-10T15:46:18.522Z,101343.13
2022-11-10T15:49:04.068Z,101344.50
2022-11-10T15:51:53.110Z,101346.91
2022-11-10T15:54:38.559Z,101347.53
2022-11-10T15:57:23.966Z,101348.72
2022-11-10T16:00:19.665Z,101342.75
2022-11-10T16:03:05.718Z,101335.72
2022-11-10T16:05:51.362Z,101341.63
2022-11-10T16:08:40.511Z,101329.41
2022-11-10T16:11:26.807Z,101322.09
2022-11-10T16:14:42.566Z,101339.84
2022-11-10T16:17:28.134Z,101345.84
2022-11-10T16:20:18.654Z,101355.81
2022-11-10T16:23:03.773Z,101366.66
2022-11-10T16:26:05.838Z,101379.75
2022-11-10T16:28:59.980Z,101397.94
2022-11-10T16:31:57.096Z,101405.41
2022-11-10T16:34:43.686Z,101414.16
2022-11-10T16:37:44.328Z,101433.09
2022-11-10T16:40:37.772Z,101426.31
2022-11-10T16:43:34.327Z,101423.19
2022-11-10T16:46:21.060Z,101420.25
2022-11-10T16:49:10.881Z,101415.38
2022-11-10T16:52:23.815Z,101431.06
2022-11-10T16:55:14.385Z,101438.31
2022-11-10T16:58:00.334Z,101451.03
2022-11-10T17:00:56.247Z,101457.56
2022-11-10T17:03:50.788Z,101458.88
2022-11-10T17:06:52.986Z,101467.59
2022-11-10T17:09:43.622Z,101474.69
2022-11-10T17:12:28.857Z,101481.06
2022-11-10T17:15:30.707Z,101479.41
2022-11-10T17:18:23.179Z,101486.09
2022-11-10T17:21:12.474Z,101511.84
2022-11-10T17:24:03.083Z,101525.22
2022-11-10T17:26:48.658Z,101524.19
2022-11-10T17:29:41.758Z,101531.06
2022-11-10T17:33:10.011Z,101563.31
2022-11-10T17:36:07.956Z,101591.28
2022-11-10T17:38:57.755Z,101602.19
2022-11-10T17:41:43.405Z,101610.56
2022-11-10T17:44:29.171Z,101615.22
2022-11-10T17:48:05.242Z,101602.34
2022-11-10T17:51:26.943Z,101582.78
2022-11-10T17:58:42.309Z,101556.00
2022-11-10T18:01:48.328Z,101540.22
2022-11-10T18:16:38.387Z,101478.38
2022-11-10T18:19:23.645Z,101481.66
2022-11-10T18:22:09.129Z,101460.44
2022-11-10T18:24:54.610Z,101463.44
2022-11-10T18:27:40.009Z,101451.03
2022-11-10T18:30:25.366Z,101446.75
2022-11-10T18:33:11.923Z,101444.00
2022-11-10T18:36:00.381Z,101441.72
2022-11-10T18:38:47.619Z,101429.97
2022-11-10T18:41:53.680Z,101433.59
2022-11-10T18:44:39.475Z,101430.13
2022-11-10T18:47:24.398Z,101421.63
2022-11-10T18:50:10.019Z,101425.50
2022-11-10T18:52:55.083Z,101426.56
2022-11-10T18:55:45.208Z,101425.19
2022-11-10T18:58:31.045Z,101427.94
2022-11-10T19:01:16.866Z,101431.38
2022-11-10T19:04:02.380Z,101439.41
2022-11-10T19:06:49.596Z,101434.25
2022-11-10T19:09:35.092Z,101436.69
2022-11-10T19:12:26.346Z,101444.81
2022-11-10T19:15:11.925Z,101436.44
2022-11-10T19:17:57.285Z,101430.13
2022-11-10T19:20:42.679Z,101431.63
2022-11-10T19:23:28.263Z,101417.94
2022-11-10T19:26:19.408Z,101421.59
2022-11-10T19:29:07.450Z,101422.69
2022-11-10T19:31:52.660Z,101411.66
2022-11-10T19:34:37.945Z,101420.59
2022-11-10T19:37:23.216Z,101414.25
2022-11-10T19:40:09.039Z,101414.78
2022-11-10T19:42:54.399Z,101420.28
2022-11-10T19:45:39.855Z,101428.50
2022-11-10T19:48:25.393Z,101439.34
2022-11-10T19:51:13.556Z,101436.69
2022-11-10T19:54:04.968Z,101443.06
2022-11-10T19:56:50.253Z,101451.28
2022-11-10T19:59:35.781Z,101451.59
2022-11-10T20:02:21.157Z,101449.59
2022-11-10T20:05:12.359Z,101440.94
2022-11-10T20:08:12.638Z,101432.53
2022-11-10T20:11:06.120Z,101437.69
2022-11-10T20:13:54.968Z,101436.19
2022-11-10T20:16:40.565Z,101444.59
2022-11-10T20:19:26.238Z,101450.75
2022-11-10T20:22:12.850Z,101446.41
2022-11-10T20:24:58.318Z,101456.78
2022-11-10T20:27:43.975Z,101466.13
2022-11-10T20:30:29.585Z,101469.34
2022-11-10T20:33:14.770Z,101472.81
2022-11-10T20:36:07.992Z,101464.31
2022-11-10T20:38:54.885Z,101458.78
2022-11-10T20:41:39.864Z,101453.06
2022-11-10T20:44:25.408Z,101466.66
2022-11-10T20:47:10.817Z,101469.50
2022-11-10T20:49:56.251Z,101482.72
2022-11-10T20:52:47.268Z,101480.06
2022-11-10T20:55:52.674Z,101478.72
2022-11-10T20:58:37.888Z,101477.75
2022-11-10T21:01:23.594Z,101482.25
2022-11-10T21:04:08.961Z,101488.94
2022-11-10T21:06:54.651Z,101500.28
2022-11-10T21:09:39.947Z,101496.13
2022-11-10T21:12:43.867Z,101489.25
2022-11-10T21:15:29.074Z,101494.44
2022-11-10T21:18:14.680Z,101495.44
2022-11-10T21:21:00.099Z,101502.47
2022-11-10T21:23:45.207Z,101511.53
2022-11-10T21:26:31.862Z,101500.31
2022-11-10T21:29:16.920Z,101498.50
2022-11-10T21:32:02.230Z,101505.81
2022-11-10T21:34:47.520Z,101505.66
2022-11-10T21:37:32.955Z,101513.84
2022-11-10T21:40:18.364Z,101514.84
2022-11-10T21:43:03.826Z,101517.38
2022-11-10T21:45:49.159Z,101542.13
2022-11-10T21:48:35.216Z,101548.28
2022-11-10T21:51:21.259Z,101547.47
2022-11-10T21:54:06.507Z,101544.47
2022-11-10T21:56:54.173Z,101538.94
2022-11-10T21:59:40.034Z,101532.56
2022-11-10T22:02:26.004Z,101544.59
2022-11-10T22:05:13.915Z,101536.91
2022-11-10T22:07:59.288Z,101529.41
2022-11-10T22:11:03.368Z,101535.09
2022-11-10T22:14:08.127Z,101520.19
2022-11-10T22:17:11.982Z,101522.00
2022-11-10T22:19:57.419Z,101528.56
2022-11-10T22:22:44.181Z,101527.56
2022-11-10T22:25:29.270Z,101531.75
2022-11-10T22:28:14.678Z,101540.06
2022-11-10T22:31:03.174Z,101552.94
2022-11-10T22:33:48.648Z,101551.41
2022-11-10T22:36:34.094Z,101555.75
2022-11-10T22:39:19.446Z,101551.59
2022-11-10T22:42:30.233Z,101544.78
2022-11-10T22:45:15.818Z,101553.41
2022-11-10T22:48:19.687Z,101552.06
2022-11-10T22:51:04.782Z,101560.28
2022-11-10T22:53:50.661Z,101571.72
2022-11-10T22:56:36.267Z,101571.44
2022-11-10T22:59:21.486Z,101576.78
2022-11-10T23:02:07.078Z,101578.47
2022-11-10T23:04:52.686Z,101567.69
2022-11-10T23:07:38.060Z,101566.91
2022-11-10T23:10:23.405Z,101563.03
2022-11-10T23:13:08.779Z,101564.38
2022-11-10T23:15:58.632Z,101579.09
2022-11-10T23:18:45.881Z,101587.47
2022-11-10T23:21:31.267Z,101594.94
2022-11-10T23:24:22.374Z,101580.59
2022-11-10T23:27:07.952Z,101576.16
2022-11-10T23:29:53.365Z,101580.53
2022-11-10T23:32:38.914Z,101585.03
2022-11-10T23:35:24.762Z,101577.50
2022-11-10T23:38:09.830Z,101572.66
2022-11-10T23:40:56.347Z,101561.34
2022-11-10T23:43:42.353Z,101553.66
2022-11-10T23:46:27.818Z,101552.31
2022-11-10T23:49:13.182Z,101552.63
2022-11-10T23:51:58.515Z,101554.44
2022-11-10T23:54:43.860Z,101563.00
2022-11-10T23:57:29.236Z,101567.88
